Time;durP1;ratioP1;P1;durP2;ratioP2;P2;SDS_P1;SDS_P2;PMS_P1;PMS_P2;Temp;Humidity;BMP_temperature;BMP_pressure;BME280_temperature;BME280_humidity;BME280_pressure;Samples;Min_cycle;Max_cycle;Signal;HPM_P1;HPM_P2
2023/05/03 00:02:26;;;;;;;2.70;1.90;;;24.30;99.90;;;;;;4959907;28;20208;-94
2023/05/03 00:04:58;;;;;;;5.03;2.30;;;24.40;99.90;;;;;;4958023;29;20235;-95
2023/05/03 00:07:31;;;;;;;3.63;2.23;;;24.30;99.90;;;;;;4965572;29;20207;-95
2023/05/03 00:10:03;;;;;;;2.80;2.20;;;23.80;99.90;;;;;;4958202;28;20266;-95
2023/05/03 00:12:34;;;;;;;4.03;2.00;;;23.60;99.90;;;;;;4958024;28;20208;-92
2023/05/03 00:15:06;;;;;;;4.67;2.20;;;23.90;99.90;;;;;;4957755;28;20279;-91
2023/05/03 00:17:41;;;;;;;3.23;1.83;;;24.20;99.90;;;;;;4957424;28;20215;-96
2023/05/03 00:20:14;;;;;;;3.97;2.03;;;24.40;99.90;;;;;;4958549;28;20223;-93
2023/05/03 00:22:45;;;;;;;5.33;2.07;;;24.40;99.90;;;;;;4957378;28;20658;-92
2023/05/03 00:25:16;;;;;;;4.33;2.10;;;24.30;99.90;;;;;;4956564;29;20234;-92
2023/05/03 00:27:47;;;;;;;3.30;2.00;;;24.30;99.90;;;;;;4957419;28;20283;-91
2023/05/03 00:30:19;;;;;;;2.97;1.70;;;24.30;99.90;;;;;;4958743;28;20226;-92
2023/05/03 00:32:52;;;;;;;1.97;1.80;;;24.20;99.90;;;;;;4957716;28;20211;-92
2023/05/03 00:35:23;;;;;;;3.17;2.37;;;24.20;99.90;;;;;;4959743;28;20220;-92
2023/05/03 00:37:54;;;;;;;5.37;1.90;;;24.10;99.90;;;;;;4945446;28;20273;-92
2023/05/03 00:40:26;;;;;;;2.83;2.07;;;23.90;99.90;;;;;;4958316;28;20209;-92
2023/05/03 00:42:57;;;;;;;3.20;2.00;;;24.00;99.90;;;;;;4960149;29;20212;-91
2023/05/03 00:45:30;;;;;;;4.47;2.10;;;24.00;99.90;;;;;;4970013;28;20235;-92
2023/05/03 00:48:03;;;;;;;4.10;2.00;;;24.10;99.90;;;;;;4960066;28;20204;-92
2023/05/03 00:50:37;;;;;;;2.80;2.10;;;24.10;99.90;;;;;;4958262;29;20307;-91
2023/05/03 00:53:09;;;;;;;5.53;2.30;;;23.90;99.90;;;;;;4950100;28;20503;-95
2023/05/03 00:55:43;;;;;;;4.50;1.90;;;23.70;99.90;;;;;;4953558;28;20847;-96
2023/05/03 00:58:15;;;;;;;2.80;1.70;;;23.70;99.90;;;;;;4945602;29;20578;-95
2023/05/03 01:00:50;;;;;;;4.13;1.93;;;24.00;99.90;;;;;;4959010;29;20239;-96
2023/05/03 01:03:24;;;;;;;3.30;1.60;;;24.10;99.90;;;;;;4970231;29;20203;-95
2023/05/03 01:06:04;;;;;;;3.00;1.87;;;24.30;99.90;;;;;;4972517;28;20214;-94
2023/05/03 01:08:42;;;;;;;4.43;1.70;;;24.60;99.90;;;;;;4965839;28;20214;-94
2023/05/03 01:11:21;;;;;;;4.07;1.80;;;24.90;99.90;;;;;;4959437;28;20214;-94
2023/05/03 01:13:57;;;;;;;3.30;2.10;;;25.10;99.90;;;;;;4956623;29;20573;-95
2023/05/03 01:16:33;;;;;;;2.93;1.60;;;25.30;99.90;;;;;;4957580;28;20260;-96
2023/05/03 01:19:22;;;;;;;2.97;1.70;;;25.50;99.90;;;;;;4956433;28;20207;-95
2023/05/03 01:22:17;;;;;;;2.50;1.60;;;25.40;99.90;;;;;;4948524;29;20207;-94
2023/05/03 01:24:53;;;;;;;5.17;1.80;;;25.70;99.90;;;;;;4962342;29;20239;-96
2023/05/03 01:27:27;;;;;;;2.97;1.73;;;25.30;99.90;;;;;;4960792;28;20235;-96
2023/05/03 01:29:59;;;;;;;3.37;1.97;;;25.70;99.90;;;;;;4955570;29;20266;-96
2023/05/03 01:32:42;;;;;;;5.73;2.10;;;25.50;99.90;;;;;;4969044;29;20187;-96
2023/05/03 01:35:21;;;;;;;3.97;1.87;;;25.80;99.90;;;;;;4978847;28;20195;-96
2023/05/03 01:48:31;;;;;;;2.30;1.67;;;25.00;99.90;;;;;;4995154;28;20206;-96
2023/05/03 01:51:03;;;;;;;2.50;1.53;;;24.70;99.90;;;;;;4987212;28;20224;-92
2023/05/03 01:53:35;;;;;;;2.10;1.80;;;23.80;99.90;;;;;;4984906;28;20375;-94
2023/05/03 01:56:07;;;;;;;2.33;1.57;;;23.60;99.90;;;;;;4974022;28;20213;-94
2023/05/03 01:58:39;;;;;;;2.80;1.60;;;23.30;99.90;;;;;;4977456;28;20210;-93
2023/05/03 02:01:11;;;;;;;3.67;1.60;;;23.10;99.90;;;;;;4975221;28;20206;-93
2023/05/03 02:03:44;;;;;;;1.70;1.20;;;23.10;99.90;;;;;;4976603;28;20238;-93
2023/05/03 02:06:14;;;;;;;5.83;1.57;;;22.90;99.90;;;;;;4976828;28;20238;-93
2023/05/03 02:08:45;;;;;;;3.80;1.40;;;22.80;99.90;;;;;;4975150;28;20207;-94
2023/05/03 02:11:17;;;;;;;2.13;1.30;;;22.40;99.90;;;;;;4974258;28;20211;-94
2023/05/03 02:13:50;;;;;;;2.07;1.53;;;22.20;99.90;;;;;;4976166;28;20218;-94
2023/05/03 02:16:21;;;;;;;3.33;1.40;;;22.10;99.90;;;;;;4977138;28;20210;-94
2023/05/03 02:18:58;;;;;;;4.67;1.70;;;21.80;99.90;;;;;;4956720;28;20211;-94
2023/05/03 02:21:29;;;;;;;1.87;1.30;;;21.80;99.90;;;;;;4973899;28;20294;-94
2023/05/03 02:24:00;;;;;;;4.33;1.40;;;21.60;99.90;;;;;;4988165;28;20202;-94
2023/05/03 02:26:32;;;;;;;2.97;1.33;;;21.50;99.90;;;;;;4988522;28;20249;-94
2023/05/03 02:29:03;;;;;;;1.87;1.30;;;21.30;99.90;;;;;;4976002;28;20214;-95
2023/05/03 02:31:35;;;;;;;4.20;1.50;;;21.20;99.90;;;;;;4972216;28;20354;-94
2023/05/03 02:34:08;;;;;;;3.33;1.37;;;21.10;99.90;;;;;;4974507;28;20203;-96
2023/05/03 02:36:41;;;;;;;3.37;1.03;;;21.00;99.90;;;;;;4962826;28;20214;-95
2023/05/03 02:39:12;;;;;;;2.40;1.30;;;20.60;99.90;;;;;;5003388;28;20211;-90
2023/05/03 03:05:57;;;;;;;4.53;1.60;;;19.20;99.90;;;;;;5736632;23;20249;-96
2023/05/03 03:08:29;;;;;;;2.87;1.57;;;19.10;99.90;;;;;;5009437;28;20308;-96
2023/05/03 03:16:24;;;;;;;5.80;1.80;;;18.70;99.90;;;;;;4975310;28;20303;-96
2023/05/03 03:18:57;;;;;;;2.30;1.50;;;18.60;99.90;;;;;;4982028;28;20217;-96
2023/05/03 03:21:34;;;;;;;4.33;2.07;;;18.50;99.90;;;;;;4993756;28;20210;-96
2023/05/03 03:24:11;;;;;;;3.73;2.07;;;18.50;99.90;;;;;;4986197;28;20222;-96
2023/05/03 03:26:43;;;;;;;3.33;1.87;;;18.40;99.90;;;;;;4973911;28;20291;-96
2023/05/03 03:29:15;;;;;;;6.40;1.87;;;18.40;99.90;;;;;;4972245;28;20217;-96
2023/05/03 03:31:47;;;;;;;3.27;1.93;;;18.30;99.90;;;;;;4978398;28;20272;-96
2023/05/03 04:09:21;;;;;;;3.03;1.63;;;17.90;99.90;;;;;;5358861;23;20234;-96
2023/05/03 04:11:55;;;;;;;3.20;1.80;;;17.90;99.90;;;;;;5001013;28;20274;-96
2023/05/03 04:14:30;;;;;;;5.10;2.00;;;17.80;99.90;;;;;;4997092;28;20207;-96
2023/05/03 04:17:06;;;;;;;2.20;1.50;;;17.70;99.90;;;;;;4998082;28;20203;-96
2023/05/03 04:19:40;;;;;;;3.50;1.60;;;17.60;99.90;;;;;;4997509;28;20202;-96
2023/05/03 04:22:15;;;;;;;2.80;1.70;;;17.60;99.90;;;;;;4992654;28;20219;-96
2023/05/03 04:24:50;;;;;;;3.23;1.70;;;17.50;99.90;;;;;;5012335;28;20217;-96
2023/05/03 04:27:22;;;;;;;4.27;1.93;;;17.40;99.90;;;;;;4997044;28;20233;-96
2023/05/03 04:29:54;;;;;;;3.63;1.57;;;17.30;99.90;;;;;;4996951;28;20258;-96
2023/05/03 04:32:27;;;;;;;3.37;1.53;;;17.30;99.90;;;;;;4998658;28;20207;-96
2023/05/03 04:34:59;;;;;;;2.17;1.50;;;17.30;99.90;;;;;;5005075;28;20195;-96
2023/05/03 05:15:17;;;;;;;3.47;2.00;;;17.40;99.90;;;;;;5854621;23;20494;-96
2023/05/03 05:17:52;;;;;;;3.47;1.80;;;17.40;99.90;;;;;;5011893;28;20205;-96
2023/05/03 05:20:25;;;;;;;4.60;2.37;;;17.30;99.90;;;;;;5015083;28;20213;-96
2023/05/03 05:22:57;;;;;;;7.77;2.03;;;17.40;99.90;;;;;;5017836;28;20193;-96
2023/05/03 05:25:29;;;;;;;2.80;2.07;;;17.30;99.90;;;;;;5019047;28;20289;-96
2023/05/03 06:38:20;;;;;;;7.50;2.43;;;16.00;99.90;;;;;;5831165;23;20250;-94
2023/05/03 06:40:52;;;;;;;4.73;2.50;;;15.90;99.90;;;;;;5006757;28;20206;-96
2023/05/03 06:43:24;;;;;;;5.50;2.20;;;15.80;99.90;;;;;;5013935;28;20203;-96
2023/05/03 06:45:57;;;;;;;7.20;2.30;;;15.70;99.90;;;;;;5013919;28;20305;-96
2023/05/03 07:47:56;;;;;;;8.27;2.53;;;14.30;99.90;;;;;;5672860;23;20640;-96
2023/05/03 14:06:40;;;;;;;6.60;2.50;;;12.40;99.90;;;;;;6061854;23;20207;-97
2023/05/03 14:09:16;;;;;;;7.97;2.57;;;12.40;99.90;;;;;;4918832;29;20201;-96
2023/05/03 15:03:10;;;;;;;8.37;2.67;;;13.50;99.90;;;;;;5734847;23;20251;-96
2023/05/03 15:05:46;;;;;;;5.47;2.77;;;13.50;99.90;;;;;;4958739;29;20228;-96
2023/05/03 15:08:20;;;;;;;5.17;2.37;;;13.60;99.90;;;;;;4950961;29;20294;-96
2023/05/03 15:10:54;;;;;;;6.40;2.80;;;13.70;99.90;;;;;;4941316;29;20284;-96
2023/05/03 15:13:25;;;;;;;4.63;2.37;;;13.80;99.90;;;;;;4957092;29;20237;-96
2023/05/03 15:15:59;;;;;;;6.33;2.67;;;13.90;99.90;;;;;;4959453;29;20208;-96
2023/05/03 15:18:33;;;;;;;4.40;2.47;;;14.10;99.90;;;;;;4943264;29;20208;-96
2023/05/03 15:21:06;;;;;;;11.50;2.90;;;14.00;99.90;;;;;;4959990;29;20267;-97
2023/05/03 15:23:38;;;;;;;4.07;2.20;;;14.10;99.90;;;;;;4961736;29;20240;-96
2023/05/03 15:26:10;;;;;;;4.50;2.30;;;14.20;99.90;;;;;;4974028;28;20237;-96
2023/05/03 16:14:27;;;;;;;5.73;1.80;;;15.20;99.90;;;;;;4961960;28;20223;-96
2023/05/03 16:16:59;;;;;;;3.37;2.00;;;15.30;99.90;;;;;;4978650;28;20456;-96
2023/05/03 16:19:36;;;;;;;3.73;2.20;;;15.40;99.90;;;;;;4963369;29;20227;-96
2023/05/03 16:27:24;;;;;;;3.77;2.07;;;15.60;99.90;;;;;;4940384;29;20272;-96
2023/05/03 16:30:00;;;;;;;5.67;1.90;;;15.80;99.90;;;;;;4936318;29;20204;-96
2023/05/03 17:18:21;;;;;;;2.90;1.80;;;16.10;99.90;;;;;;5734123;23;20267;-96
2023/05/03 17:20:54;;;;;;;4.10;2.37;;;16.10;99.90;;;;;;4933974;29;20243;-96
2023/05/03 17:23:27;;;;;;;4.83;2.03;;;16.20;99.90;;;;;;4935327;29;20197;-96
2023/05/03 17:28:35;;;;;;;3.80;2.17;;;16.50;99.90;;;;;;6051694;23;20189;-93
2023/05/03 18:00:45;;;;;;;6.10;2.53;;;17.50;99.90;;;;;;5632045;23;20255;-96
2023/05/03 18:19:30;;;;;;;5.77;2.70;;;17.10;99.90;;;;;;5101871;23;20263;-96
2023/05/03 18:22:03;;;;;;;5.27;2.53;;;17.40;99.90;;;;;;4962240;28;20207;-96
2023/05/03 18:43:31;;;;;;;4.17;2.57;;;18.40;99.90;;;;;;5138823;23;3362164;-96
2023/05/03 18:46:11;;;;;;;4.87;2.43;;;18.40;99.90;;;;;;4956389;29;20263;-96
2023/05/03 18:48:43;;;;;;;6.53;2.73;;;18.30;99.90;;;;;;4959745;28;20334;-96
2023/05/03 18:51:16;;;;;;;6.10;2.57;;;18.20;99.90;;;;;;4959493;29;20216;-96
2023/05/03 18:53:48;;;;;;;7.00;2.30;;;18.20;99.90;;;;;;4950144;29;20307;-96
2023/05/03 18:56:21;;;;;;;5.63;2.43;;;18.20;99.90;;;;;;4961700;28;20195;-96
2023/05/03 19:15:07;;;;;;;7.93;3.07;;;18.10;99.90;;;;;;5888359;23;20242;-91
2023/05/03 19:17:40;;;;;;;5.60;2.33;;;18.40;99.90;;;;;;4922415;29;20711;-95
2023/05/03 19:20:13;;;;;;;4.53;2.30;;;18.70;99.90;;;;;;4921412;29;20257;-94
2023/05/03 19:22:43;;;;;;;4.17;2.50;;;18.80;99.90;;;;;;4922184;29;20212;-94
2023/05/03 19:25:16;;;;;;;5.50;2.37;;;19.00;99.90;;;;;;4931879;29;20216;-95
2023/05/03 19:27:47;;;;;;;5.40;2.50;;;19.20;99.90;;;;;;4947386;29;20244;-95
2023/05/03 19:30:21;;;;;;;4.80;2.13;;;19.30;99.90;;;;;;4941838;29;20689;-94
2023/05/03 19:32:53;;;;;;;5.07;2.70;;;19.30;99.90;;;;;;4941805;29;20222;-94
2023/05/03 19:35:24;;;;;;;7.97;2.83;;;19.30;99.90;;;;;;4921239;29;20758;-95
2023/05/03 19:37:56;;;;;;;3.50;2.30;;;19.20;99.90;;;;;;4921501;29;20213;-95
2023/05/03 19:40:27;;;;;;;5.13;2.60;;;19.30;99.90;;;;;;4920967;29;20292;-96
2023/05/03 19:42:58;;;;;;;3.73;2.77;;;19.40;99.90;;;;;;4921285;29;20326;-94
2023/05/03 19:45:31;;;;;;;4.03;2.40;;;19.60;99.90;;;;;;4924618;29;20213;-94
2023/05/03 19:48:03;;;;;;;7.67;2.37;;;19.80;99.90;;;;;;4920420;29;20327;-96
2023/05/03 19:50:37;;;;;;;4.17;2.60;;;19.90;99.90;;;;;;4922232;29;20212;-95
2023/05/03 19:53:08;;;;;;;6.30;2.70;;;20.10;99.90;;;;;;4922695;29;20206;-95
2023/05/03 19:55:39;;;;;;;4.27;2.50;;;20.30;99.90;;;;;;4949118;29;20280;-96
2023/05/03 19:58:11;;;;;;;4.60;2.53;;;20.40;99.90;;;;;;4979400;28;20220;-95
2023/05/03 20:00:44;;;;;;;3.67;2.50;;;20.30;99.90;;;;;;4973848;28;20250;-94
2023/05/03 20:03:16;;;;;;;3.47;2.50;;;20.10;99.90;;;;;;4961815;28;20211;-93
2023/05/03 20:05:47;;;;;;;6.40;2.70;;;20.30;99.90;;;;;;4961879;28;20218;-93
2023/05/03 20:08:18;;;;;;;5.20;2.73;;;20.20;99.90;;;;;;4960584;28;20255;-94
2023/05/03 20:10:51;;;;;;;7.00;2.83;;;20.20;99.90;;;;;;4960041;29;20295;-94
2023/05/03 20:13:24;;;;;;;6.43;2.50;;;20.30;99.90;;;;;;4959128;28;20222;-92
2023/05/03 20:15:57;;;;;;;4.70;2.37;;;20.00;99.90;;;;;;4958507;28;20226;-92
2023/05/03 20:18:28;;;;;;;3.20;2.30;;;20.00;99.90;;;;;;4957631;28;20212;-91
2023/05/03 20:20:59;;;;;;;5.87;2.20;;;20.20;99.90;;;;;;4958456;28;20207;-93
2023/05/03 20:23:31;;;;;;;5.17;2.57;;;20.30;99.90;;;;;;4958289;28;20211;-91
2023/05/03 20:26:02;;;;;;;3.63;2.47;;;20.50;99.90;;;;;;4957876;28;20211;-91
2023/05/03 20:28:33;;;;;;;4.03;2.57;;;20.70;99.90;;;;;;4957748;28;20271;-91
2023/05/03 20:31:06;;;;;;;5.93;2.80;;;20.60;99.90;;;;;;4958272;28;20654;-90
2023/05/03 20:33:37;;;;;;;4.00;2.37;;;20.50;99.90;;;;;;4958542;28;20619;-91
2023/05/03 20:36:08;;;;;;;3.90;2.57;;;20.60;99.90;;;;;;4957563;28;20208;-91
2023/05/03 20:38:40;;;;;;;4.43;2.70;;;20.80;99.90;;;;;;4957059;28;20212;-90
2023/05/03 20:41:11;;;;;;;4.63;2.63;;;20.80;99.90;;;;;;4958587;28;20208;-91
2023/05/03 20:43:43;;;;;;;3.93;2.80;;;20.90;99.90;;;;;;4957963;28;20227;-91
2023/05/03 20:46:15;;;;;;;5.37;2.80;;;21.20;99.90;;;;;;4949851;28;20205;-91
2023/05/03 20:48:47;;;;;;;5.00;3.00;;;21.40;99.90;;;;;;4937081;29;20236;-91
2023/05/03 20:51:17;;;;;;;6.97;2.77;;;21.50;99.90;;;;;;4938272;29;20216;-91
2023/05/03 20:53:49;;;;;;;5.10;2.53;;;21.30;99.90;;;;;;4938394;29;20209;-92
2023/05/03 20:56:20;;;;;;;3.37;2.20;;;21.40;99.90;;;;;;4938275;29;20286;-92
2023/05/03 20:58:51;;;;;;;6.20;3.10;;;21.60;99.90;;;;;;4937685;29;20675;-93
2023/05/03 21:01:24;;;;;;;8.17;2.80;;;21.60;99.90;;;;;;4937712;29;20259;-91
2023/05/03 21:03:55;;;;;;;5.70;3.20;;;21.30;99.90;;;;;;4938453;29;20216;-92
2023/05/03 21:06:26;;;;;;;4.70;2.77;;;21.50;99.90;;;;;;4937907;29;20259;-92
2023/05/03 21:08:57;;;;;;;4.17;2.83;;;21.70;99.90;;;;;;4937367;29;20227;-92
2023/05/03 21:11:29;;;;;;;3.67;2.77;;;22.00;99.90;;;;;;4936588;29;20208;-91
2023/05/03 21:14:00;;;;;;;5.30;2.83;;;22.10;99.90;;;;;;4937909;29;20243;-91
2023/05/03 21:16:32;;;;;;;4.30;2.90;;;22.00;99.90;;;;;;4937782;29;20222;-91
2023/05/03 21:19:04;;;;;;;5.43;2.83;;;22.20;99.90;;;;;;4936937;29;20698;-92
2023/05/03 21:21:35;;;;;;;7.00;2.97;;;22.30;99.90;;;;;;4937980;29;20212;-92
2023/05/03 21:24:06;;;;;;;4.17;2.43;;;22.50;99.90;;;;;;4937368;29;20212;-93
2023/05/03 21:26:37;;;;;;;3.80;2.90;;;22.80;99.90;;;;;;4937885;29;20208;-92
2023/05/03 21:29:08;;;;;;;4.90;2.70;;;23.00;99.90;;;;;;4937046;29;20240;-92
2023/05/03 21:31:41;;;;;;;6.77;2.73;;;23.10;99.90;;;;;;4937558;29;20209;-92
2023/05/03 21:34:12;;;;;;;4.23;2.87;;;23.00;99.90;;;;;;4937432;29;20216;-90
2023/05/03 21:36:43;;;;;;;5.70;2.80;;;22.80;99.90;;;;;;4938122;29;20212;-90
2023/05/03 21:39:14;;;;;;;4.60;2.50;;;22.90;99.90;;;;;;4936904;29;20263;-90
2023/05/03 21:41:45;;;;;;;8.90;3.40;;;22.80;99.90;;;;;;4937149;29;20208;-91
2023/05/03 21:44:17;;;;;;;6.43;2.73;;;22.90;99.90;;;;;;4944032;29;20216;-91
2023/05/03 21:46:52;;;;;;;5.03;3.17;;;23.10;99.90;;;;;;4949774;29;20237;-93
2023/05/03 21:49:24;;;;;;;5.53;3.20;;;23.20;99.90;;;;;;4948083;29;20255;-95
2023/05/03 21:51:56;;;;;;;4.37;2.90;;;23.30;99.90;;;;;;4940746;29;20216;-92
2023/05/03 21:54:28;;;;;;;6.40;2.87;;;23.50;99.90;;;;;;4937844;29;20208;-93
2023/05/03 21:57:00;;;;;;;5.33;2.90;;;23.60;99.90;;;;;;4938330;29;20212;-93
2023/05/03 21:59:31;;;;;;;5.60;2.87;;;23.40;99.90;;;;;;4946440;29;20212;-91
2023/05/03 22:02:05;;;;;;;4.37;2.77;;;23.70;99.90;;;;;;4948435;29;20204;-91
2023/05/03 22:04:37;;;;;;;5.80;2.80;;;23.80;99.90;;;;;;4956159;28;20204;-91
2023/05/03 22:07:09;;;;;;;6.60;3.10;;;23.90;99.90;;;;;;4966023;29;20215;-91
2023/05/03 22:09:42;;;;;;;4.27;2.43;;;23.90;99.90;;;;;;4957922;28;20243;-92
2023/05/03 22:12:14;;;;;;;5.90;2.60;;;23.80;99.90;;;;;;4940015;29;20219;-91
2023/05/03 22:14:48;;;;;;;6.43;2.93;;;23.60;99.90;;;;;;4939536;29;20216;-90
2023/05/03 22:17:23;;;;;;;4.93;2.87;;;24.10;99.90;;;;;;4937996;29;20219;-92
2023/05/03 22:19:55;;;;;;;6.97;2.83;;;24.20;99.90;;;;;;4937053;29;20243;-90
2023/05/03 22:22:26;;;;;;;7.33;2.97;;;24.30;99.90;;;;;;4940326;29;20213;-91
2023/05/03 22:25:01;;;;;;;5.50;2.60;;;24.20;99.90;;;;;;4945634;29;20210;-90
2023/05/03 22:27:32;;;;;;;5.13;2.90;;;24.00;99.90;;;;;;4938495;29;20219;-92
2023/05/03 22:30:05;;;;;;;7.57;2.93;;;24.20;99.90;;;;;;4937578;29;20278;-91
2023/05/03 22:32:39;;;;;;;68.27;6.97;;;24.10;99.90;;;;;;4937574;29;20331;-93
2023/05/03 22:35:12;;;;;;;4.27;2.67;;;24.10;99.90;;;;;;4942292;29;20212;-89
2023/05/03 22:37:45;;;;;;;6.97;2.90;;;24.50;99.90;;;;;;4953737;29;20279;-91
2023/05/03 22:40:18;;;;;;;7.67;2.90;;;24.50;99.90;;;;;;4923654;29;20205;-92
2023/05/03 22:42:50;;;;;;;4.57;2.67;;;24.80;99.90;;;;;;4927610;29;20204;-93
2023/05/03 22:45:21;;;;;;;5.40;2.80;;;25.00;99.90;;;;;;4936778;29;20264;-94
2023/05/03 22:47:55;;;;;;;7.93;3.20;;;25.40;99.90;;;;;;4936365;29;20675;-91
2023/05/03 22:50:27;;;;;;;6.80;2.90;;;24.90;99.90;;;;;;4932518;29;20575;-92
2023/05/03 22:52:59;;;;;;;5.20;2.77;;;24.80;99.90;;;;;;4935719;29;20299;-96
2023/05/03 22:55:31;;;;;;;5.17;2.60;;;24.50;99.90;;;;;;4937968;29;20209;-91
2023/05/03 22:58:02;;;;;;;6.70;2.97;;;24.60;99.90;;;;;;4934974;29;20267;-91
2023/05/03 23:00:34;;;;;;;4.60;2.70;;;24.90;99.90;;;;;;4917893;29;20213;-93
2023/05/03 23:03:08;;;;;;;4.63;2.63;;;25.00;99.90;;;;;;4919392;29;20308;-91
2023/05/03 23:05:41;;;;;;;5.00;2.80;;;24.80;99.90;;;;;;4918488;29;20281;-91
2023/05/03 23:08:12;;;;;;;4.07;2.50;;;24.60;99.90;;;;;;4917017;29;20716;-91
2023/05/03 23:10:44;;;;;;;4.00;2.33;;;24.30;99.90;;;;;;4917407;29;20209;-92
2023/05/03 23:13:16;;;;;;;6.77;2.97;;;24.50;99.90;;;;;;4917784;29;20834;-92
2023/05/03 23:15:47;;;;;;;4.40;2.50;;;24.40;99.90;;;;;;4917057;29;20695;-90
2023/05/03 23:18:20;;;;;;;3.97;2.57;;;24.30;99.90;;;;;;4916693;29;20616;-89
2023/05/03 23:20:52;;;;;;;5.60;2.60;;;24.30;99.90;;;;;;4917046;29;20209;-89
2023/05/03 23:23:23;;;;;;;4.50;2.40;;;24.70;99.90;;;;;;4922870;29;20217;-89
2023/05/03 23:25:54;;;;;;;4.83;2.37;;;24.80;99.90;;;;;;4943668;29;20585;-90
2023/05/03 23:28:26;;;;;;;5.87;2.37;;;24.90;99.90;;;;;;4938471;29;20272;-90
2023/05/03 23:30:57;;;;;;;6.50;2.47;;;24.20;99.90;;;;;;4939708;29;20267;-90
2023/05/03 23:33:31;;;;;;;3.57;2.10;;;24.30;99.90;;;;;;4939907;29;20216;-89
2023/05/03 23:36:02;;;;;;;3.73;2.47;;;24.70;99.90;;;;;;4939002;29;20215;-89
2023/05/03 23:38:33;;;;;;;5.60;2.30;;;25.10;99.90;;;;;;4938213;29;20212;-89
2023/05/03 23:41:05;;;;;;;6.90;2.63;;;25.20;99.90;;;;;;4939047;29;20214;-90
2023/05/03 23:43:37;;;;;;;6.60;2.57;;;25.40;99.90;;;;;;4939407;29;20243;-89
2023/05/03 23:46:08;;;;;;;6.83;2.67;;;25.50;99.90;;;;;;4939418;29;20213;-90
2023/05/03 23:48:41;;;;;;;5.07;2.37;;;25.60;99.90;;;;;;4937985;29;20653;-90
2023/05/03 23:51:13;;;;;;;7.20;2.93;;;25.00;99.90;;;;;;4938653;29;20251;-92
2023/05/03 23:53:44;;;;;;;6.07;2.63;;;25.00;99.90;;;;;;4939650;29;20216;-94
2023/05/03 23:56:15;;;;;;;6.30;2.83;;;25.00;99.90;;;;;;4941042;29;20377;-93
2023/05/03 23:58:47;;;;;;;6.73;2.73;;;25.00;99.90;;;;;;4959249;28;20203;-92
